Time;durP1;ratioP1;P1;durP2;ratioP2;P2;SDS_P1;SDS_P2;PMS_P1;PMS_P2;Temp;Humidity;BMP_temperature;BMP_pressure;BME280_temperature;BME280_humidity;BME280_pressure;Samples;Min_cycle;Max_cycle;Signal;HPM_P1;HPM_P2
2023/03/05 00:01:10;;;;;;;11.20;5.30;;;;;;;3.47;95.27;102066.53;6208264;23;20005;-82
2023/03/05 00:03:36;;;;;;;15.50;6.35;;;;;;;3.36;96.10;102060.41;6206790;23;20008;-81
2023/03/05 00:06:02;;;;;;;13.18;5.43;;;;;;;3.30;97.29;102051.66;6206918;23;20008;-82
2023/03/05 00:08:28;;;;;;;9.38;5.20;;;;;;;3.33;98.24;102062.19;6206974;23;20012;-81
2023/03/05 00:11:02;;;;;;;15.10;5.35;;;;;;;3.34;97.83;102063.91;6208024;23;20011;-82
2023/03/05 00:13:28;;;;;;;14.82;5.82;;;;;;;3.35;98.35;102068.31;6207031;23;20005;-79
2023/03/05 00:15:53;;;;;;;13.02;5.10;;;;;;;3.30;98.83;102049.00;6207561;23;20421;-81
2023/03/05 00:18:19;;;;;;;13.48;5.47;;;;;;;3.35;99.03;102055.16;6208600;23;20012;-81
2023/03/05 00:20:45;;;;;;;7.85;4.47;;;;;;;3.34;98.38;102056.03;6208275;23;20015;-81
2023/03/05 00:23:11;;;;;;;11.77;5.28;;;;;;;3.28;97.67;102050.78;6181340;23;20031;-80
2023/03/05 00:25:37;;;;;;;12.57;5.75;;;;;;;3.30;97.85;102055.16;6206460;23;20705;-81
2023/03/05 00:28:03;;;;;;;15.88;4.88;;;;;;;3.29;97.69;102058.66;6207272;23;20012;-82
2023/03/05 00:30:30;;;;;;;13.13;4.85;;;;;;;3.22;97.94;102054.31;6206999;23;20008;-82
2023/03/05 00:32:55;;;;;;;12.57;4.70;;;;;;;3.26;97.60;102056.06;6207657;23;20094;-82
2023/03/05 00:35:21;;;;;;;10.90;4.88;;;;;;;3.26;97.27;102053.44;6213356;23;20036;-80
2023/03/05 00:37:46;;;;;;;11.35;4.25;;;;;;;3.25;97.38;102042.00;6215902;23;20026;-80
2023/03/05 00:40:11;;;;;;;18.23;4.57;;;;;;;3.29;96.60;102053.41;6219072;23;20000;-81
2023/03/05 00:42:37;;;;;;;7.68;3.78;;;;;;;3.24;96.88;102042.88;6214794;23;20005;-81
2023/03/05 00:45:08;;;;;;;12.68;4.57;;;;;;;3.16;96.70;102031.50;6205696;23;20087;-82
2023/03/05 00:47:34;;;;;;;12.95;4.53;;;;;;;3.24;96.72;102045.53;6205286;23;20004;-81
2023/03/05 00:49:59;;;;;;;15.75;4.43;;;;;;;3.23;96.75;102040.28;6207490;23;20005;-81
2023/03/05 00:52:25;;;;;;;9.75;4.18;;;;;;;3.23;96.95;102032.38;6207269;23;20012;-82
2023/03/05 00:54:50;;;;;;;11.95;4.25;;;;;;;3.16;96.20;102020.97;6208269;23;20012;-81
2023/03/05 00:57:16;;;;;;;9.82;3.90;;;;;;;3.19;96.76;102015.72;6208344;23;20005;-80
2023/03/05 00:59:41;;;;;;;11.50;3.95;;;;;;;3.23;96.85;102030.63;6205259;23;20099;-82
2023/03/05 01:02:07;;;;;;;16.35;5.50;;;;;;;3.18;96.25;102013.09;6207034;23;20015;-81
2023/03/05 01:04:32;;;;;;;10.75;4.20;;;;;;;3.23;96.50;102027.13;6206798;23;20063;-81
2023/03/05 01:06:58;;;;;;;8.70;4.07;;;;;;;3.20;96.58;102027.97;6206840;23;20008;-81
2023/03/05 01:09:24;;;;;;;11.45;3.95;;;;;;;3.23;96.59;102021.84;6207516;23;20083;-81
2023/03/05 01:11:50;;;;;;;10.73;4.30;;;;;;;3.21;96.56;102015.69;6207605;23;20008;-81
2023/03/05 01:14:16;;;;;;;10.55;3.63;;;;;;;3.19;96.77;102009.59;6208601;23;20079;-81
2023/03/05 01:16:42;;;;;;;10.95;4.07;;;;;;;3.19;96.83;102007.81;6205743;23;20431;-82
2023/03/05 01:19:07;;;;;;;10.10;4.07;;;;;;;3.20;96.44;102008.69;6206422;23;20024;-82
2023/03/05 01:21:34;;;;;;;12.32;4.43;;;;;;;3.20;96.96;102006.94;6206885;23;20339;-81
2023/03/05 01:24:00;;;;;;;11.10;3.60;;;;;;;3.19;96.87;101999.94;6207326;23;20059;-82
2023/03/05 01:26:25;;;;;;;14.65;4.13;;;;;;;3.18;96.64;102003.44;6204642;23;20005;-82
2023/03/05 01:28:50;;;;;;;9.73;4.10;;;;;;;3.19;97.07;101999.06;6203690;23;20023;-82
2023/03/05 01:31:16;;;;;;;9.73;3.85;;;;;;;3.15;96.75;101998.19;6206799;23;20032;-82
2023/03/05 01:33:41;;;;;;;10.77;4.00;;;;;;;3.16;96.64;101994.66;6205397;23;20080;-81
2023/03/05 01:36:13;;;;;;;10.95;4.22;;;;;;;3.16;96.66;101986.78;6205867;23;20004;-80
2023/03/05 01:38:40;;;;;;;11.48;3.90;;;;;;;3.16;97.12;101991.16;6206073;23;20007;-82
2023/03/05 01:41:05;;;;;;;9.20;4.10;;;;;;;3.15;97.20;101982.41;6206567;23;20000;-82
2023/03/05 01:43:31;;;;;;;16.27;4.30;;;;;;;3.12;97.06;101969.25;6203562;23;20020;-82
2023/03/05 01:46:35;;;;;;;15.35;4.00;;;;;;;3.14;97.30;101979.78;6203868;23;20584;-81
2023/03/05 01:49:03;;;;;;;;;;;;;;;3.20;96.45;101971.84;6198017;23;20009;-82
2023/03/05 01:51:34;;;;;;;13.07;4.20;;;;;;;3.09;97.06;101969.25;6209249;23;19904;-82
2023/03/05 01:54:01;;;;;;;14.20;4.38;;;;;;;3.10;97.68;101959.63;6208911;23;20040;-82
2023/03/05 01:56:29;;;;;;;16.95;4.90;;;;;;;3.05;98.63;101958.72;6206106;23;20007;-82
2023/03/05 01:59:02;;;;;;;11.35;4.70;;;;;;;3.07;99.59;101957.84;6205142;23;20001;-81
2023/03/05 02:01:29;;;;;;;11.43;4.55;;;;;;;2.98;100.00;101960.50;6205368;23;20008;-81
2023/03/05 02:03:55;;;;;;;11.25;4.35;;;;;;;2.88;100.00;101953.50;6204715;23;20067;-80
2023/03/05 02:06:20;;;;;;;12.32;4.63;;;;;;;2.75;100.00;101940.38;6205268;23;20004;-81
2023/03/05 02:08:45;;;;;;;12.02;4.85;;;;;;;2.72;100.00;101935.13;6204490;23;20359;-81
2023/03/05 02:11:11;;;;;;;11.82;4.80;;;;;;;2.69;100.00;101934.25;6207079;23;20054;-82
2023/03/05 02:13:39;;;;;;;12.68;4.60;;;;;;;2.66;100.00;101929.00;6205313;23;20000;-82
2023/03/05 02:16:06;;;;;;;14.02;4.40;;;;;;;2.66;100.00;101931.63;6205501;23;20071;-82
2023/03/05 02:18:31;;;;;;;11.75;5.00;;;;;;;2.68;100.00;101927.25;6205212;23;20449;-81
2023/03/05 02:20:57;;;;;;;11.15;4.70;;;;;;;2.67;100.00;101931.59;6206270;23;20035;-82
2023/03/05 02:23:28;;;;;;;11.50;4.00;;;;;;;2.67;100.00;101921.09;6206112;23;20505;-81
2023/03/05 02:25:54;;;;;;;10.75;4.00;;;;;;;2.70;100.00;101922.84;6202709;23;20086;-80
2023/03/05 02:28:31;;;;;;;9.77;4.25;;;;;;;2.69;100.00;101921.13;6206000;23;20438;-81
2023/03/05 02:30:56;;;;;;;11.43;4.10;;;;;;;2.70;100.00;101915.84;6206840;23;20427;-80
2023/03/05 02:33:21;;;;;;;11.27;4.18;;;;;;;2.70;100.00;101918.47;6207123;23;20011;-80
2023/03/05 02:35:47;;;;;;;9.05;4.30;;;;;;;2.71;100.00;101907.06;6207398;23;20017;-81
2023/03/05 02:38:15;;;;;;;11.48;3.95;;;;;;;2.69;100.00;101913.22;6208426;23;20112;-82
2023/03/05 02:40:41;;;;;;;10.65;3.92;;;;;;;2.66;100.00;101894.81;6207052;23;20582;-81
2023/03/05 02:43:06;;;;;;;10.52;4.03;;;;;;;2.69;100.00;101894.81;6207754;23;20007;-81
2023/03/05 02:45:32;;;;;;;10.63;4.35;;;;;;;2.70;100.00;101900.06;6205248;23;20008;-81
2023/03/05 02:47:59;;;;;;;9.82;4.22;;;;;;;2.71;100.00;101895.69;6207119;23;20466;-82
2023/03/05 02:50:26;;;;;;;7.97;4.30;;;;;;;2.73;100.00;101896.56;6207815;23;20012;-82
2023/03/05 02:52:51;;;;;;;11.15;4.10;;;;;;;2.73;100.00;101893.94;6207580;23;20009;-81
2023/03/05 02:55:17;;;;;;;13.02;4.30;;;;;;;2.70;100.00;101883.44;6207288;23;20007;-83
2023/03/05 02:57:42;;;;;;;9.48;4.13;;;;;;;2.72;100.00;101881.69;6207780;23;20068;-83
2023/03/05 03:00:08;;;;;;;11.13;4.30;;;;;;;2.69;100.00;101877.28;6217237;23;20006;-80
2023/03/05 03:02:33;;;;;;;7.85;4.15;;;;;;;2.71;100.00;101885.16;6216759;23;20008;-82
2023/03/05 03:04:59;;;;;;;12.27;3.90;;;;;;;2.67;100.00;101872.91;6206358;23;20043;-82
2023/03/05 03:07:24;;;;;;;13.93;4.15;;;;;;;2.68;100.00;101874.69;6207602;23;20584;-82
2023/03/05 03:09:50;;;;;;;8.45;3.53;;;;;;;2.67;100.00;101875.53;6207840;23;20036;-82
2023/03/05 03:12:15;;;;;;;10.70;3.92;;;;;;;2.67;100.00;101862.41;6208377;23;20399;-82
2023/03/05 03:14:41;;;;;;;13.10;3.95;;;;;;;2.68;100.00;101874.69;6207424;23;20066;-80
2023/03/05 03:17:12;;;;;;;9.55;3.92;;;;;;;2.64;100.00;101865.91;6208245;23;20453;-83
2023/03/05 03:19:39;;;;;;;8.45;3.55;;;;;;;2.65;100.00;101865.03;6207285;23;20001;-82
2023/03/05 03:22:06;;;;;;;10.18;4.18;;;;;;;2.64;100.00;101859.78;6207500;23;20514;-82
2023/03/05 03:24:33;;;;;;;10.13;3.88;;;;;;;2.64;100.00;101855.41;6205563;23;20008;-82
2023/03/05 03:26:58;;;;;;;14.05;4.43;;;;;;;2.64;100.00;101852.78;6207453;23;20330;-82
2023/03/05 03:29:24;;;;;;;9.00;4.07;;;;;;;2.62;100.00;101848.38;6207068;23;20020;-81
2023/03/05 03:31:50;;;;;;;13.65;4.63;;;;;;;2.62;100.00;101849.25;6205188;23;20015;-82
2023/03/05 03:34:16;;;;;;;8.30;4.30;;;;;;;2.62;100.00;101843.13;6206165;23;20082;-82
2023/03/05 03:36:43;;;;;;;9.95;5.05;;;;;;;2.61;100.00;101849.28;6206500;23;20062;-81
2023/03/05 03:39:09;;;;;;;11.45;4.65;;;;;;;2.60;100.00;101843.16;6208780;23;20008;-82
2023/03/05 03:41:35;;;;;;;7.45;4.35;;;;;;;2.61;100.00;101837.00;6211694;23;20012;-81
2023/03/05 03:44:02;;;;;;;10.00;4.28;;;;;;;2.57;100.00;101824.75;6209273;23;20396;-82
2023/03/05 03:46:27;;;;;;;14.75;4.43;;;;;;;2.60;100.00;101834.41;6210441;23;20016;-82
2023/03/05 03:48:53;;;;;;;12.02;4.32;;;;;;;2.58;100.00;101825.63;6210397;23;20009;-82
2023/03/05 03:51:18;;;;;;;13.90;4.70;;;;;;;2.55;100.00;101825.63;6212052;23;20000;-82
2023/03/05 03:53:43;;;;;;;9.88;5.00;;;;;;;2.43;100.00;101811.66;6211282;23;20011;-81
2023/03/05 03:56:09;;;;;;;9.27;4.38;;;;;;;2.44;100.00;101807.25;6211258;23;20005;-82
2023/03/05 03:58:34;;;;;;;12.32;5.10;;;;;;;2.40;100.00;101809.00;6179683;23;20015;-81
2023/03/05 04:00:59;;;;;;;15.63;4.88;;;;;;;2.41;100.00;101805.50;6206793;23;20066;-82
2023/03/05 04:03:25;;;;;;;11.00;4.63;;;;;;;2.42;100.00;101802.00;6207008;23;20008;-81
2023/03/05 04:05:50;;;;;;;11.27;5.38;;;;;;;2.39;100.00;101799.41;6205882;23;20111;-81
2023/03/05 04:08:16;;;;;;;11.65;5.15;;;;;;;2.43;100.00;101795.88;6206662;23;20083;-82
2023/03/05 04:10:41;;;;;;;10.68;4.93;;;;;;;2.40;100.00;101792.38;6206487;23;20074;-81
2023/03/05 04:13:07;;;;;;;13.32;4.85;;;;;;;2.42;100.00;101795.88;6206790;23;20074;-82
2023/03/05 04:15:33;;;;;;;11.30;4.93;;;;;;;2.42;100.00;101799.38;6204675;23;20111;-82
2023/03/05 04:17:58;;;;;;;8.52;4.47;;;;;;;2.45;100.00;101799.38;6207317;23;20418;-82
2023/03/05 04:20:24;;;;;;;13.48;5.03;;;;;;;2.43;100.00;101801.13;6207615;23;20001;-82
2023/03/05 04:22:49;;;;;;;12.45;5.28;;;;;;;2.43;100.00;101793.25;6206209;23;20079;-82
2023/03/05 04:25:14;;;;;;;14.93;5.30;;;;;;;2.42;100.00;101787.97;6206000;23;20005;-82
2023/03/05 04:27:40;;;;;;;10.60;5.05;;;;;;;2.45;100.00;101788.84;6205904;23;20226;-80
2023/03/05 04:30:07;;;;;;;11.20;4.85;;;;;;;2.40;100.00;101780.13;6205694;23;20004;-81
2023/03/05 04:32:32;;;;;;;9.55;4.82;;;;;;;2.44;100.00;101787.13;6206109;23;20123;-81
2023/03/05 04:34:58;;;;;;;13.30;5.05;;;;;;;2.42;100.00;101777.47;6206867;23;20147;-80
2023/03/05 04:37:24;;;;;;;12.55;5.40;;;;;;;2.40;100.00;101771.38;6208742;23;20122;-81
2023/03/05 04:39:50;;;;;;;12.75;5.88;;;;;;;2.38;100.00;101766.13;6205954;23;20009;-82
2023/03/05 04:42:16;;;;;;;11.70;4.93;;;;;;;2.29;100.00;101755.59;6207228;23;20011;-82
2023/03/05 04:44:41;;;;;;;13.63;6.15;;;;;;;2.36;100.00;101767.88;6203315;23;20011;-81
2023/03/05 04:47:06;;;;;;;11.65;5.28;;;;;;;2.38;100.00;101775.72;6206726;23;20012;-82
2023/03/05 04:49:32;;;;;;;10.70;5.30;;;;;;;2.38;100.00;101776.63;6205575;23;20060;-81
2023/03/05 04:51:57;;;;;;;14.70;5.60;;;;;;;2.34;100.00;101767.00;6204705;23;20081;-82
2023/03/05 04:54:23;;;;;;;10.23;5.55;;;;;;;2.34;100.00;101769.63;6206013;23;20001;-82
2023/03/05 04:56:48;;;;;;;12.88;5.40;;;;;;;2.35;100.00;101760.00;6205624;23;20010;-82
2023/03/05 04:59:14;;;;;;;12.50;5.18;;;;;;;2.37;100.00;101766.09;6207219;23;20039;-82
2023/03/05 05:01:39;;;;;;;11.55;6.18;;;;;;;2.39;100.00;101767.00;6206263;23;20410;-82
2023/03/05 05:04:05;;;;;;;11.98;5.28;;;;;;;2.39;100.00;101761.75;6205048;23;20122;-82
2023/03/05 05:06:30;;;;;;;9.73;5.65;;;;;;;2.38;100.00;101766.13;6207012;23;20020;-81
2023/03/05 05:08:55;;;;;;;12.90;6.47;;;;;;;2.36;100.00;101759.97;6207076;23;20005;-81
2023/03/05 05:11:21;;;;;;;11.30;6.13;;;;;;;2.36;100.00;101761.75;6205989;23;20012;-81
2023/03/05 05:13:46;;;;;;;14.32;6.35;;;;;;;2.37;100.00;101759.09;6205993;23;20083;-80
2023/03/05 05:16:11;;;;;;;13.02;5.95;;;;;;;2.34;100.00;101751.25;6217627;23;20027;-81
2023/03/05 05:18:37;;;;;;;13.32;6.30;;;;;;;2.36;100.00;101752.09;6217386;23;20601;-82
2023/03/05 05:21:10;;;;;;;10.98;6.20;;;;;;;2.31;100.00;101756.50;6218590;23;20011;-81
2023/03/05 05:23:35;;;;;;;15.30;6.40;;;;;;;2.38;100.00;101749.47;6206516;23;20034;-82
2023/03/05 05:26:03;;;;;;;15.23;6.78;;;;;;;2.37;100.00;101742.47;6204758;23;20441;-81
2023/03/05 05:28:29;;;;;;;12.65;6.82;;;;;;;2.36;100.00;101738.09;6179159;23;20015;-82
2023/03/05 05:30:55;;;;;;;18.60;7.80;;;;;;;2.32;100.00;101734.59;6206635;23;20004;-81
2023/03/05 05:33:21;;;;;;;12.38;7.38;;;;;;;2.35;100.00;101744.22;6200430;23;20049;-81
2023/03/05 05:35:47;;;;;;;12.23;6.72;;;;;;;2.31;100.00;101737.22;6201134;23;20005;-81
2023/03/05 05:38:12;;;;;;;13.95;7.95;;;;;;;2.33;100.00;101738.97;6203075;23;20015;-81
2023/03/05 05:40:37;;;;;;;17.10;8.25;;;;;;;2.32;100.00;101739.84;6204231;23;20015;-80
2023/03/05 05:43:03;;;;;;;17.92;8.15;;;;;;;2.34;100.00;101738.09;6201111;23;20008;-82
2023/03/05 05:45:28;;;;;;;12.10;7.90;;;;;;;2.30;100.00;101746.88;6201300;23;20009;-82
2023/03/05 05:47:54;;;;;;;14.88;8.45;;;;;;;2.24;100.00;101742.50;6202254;23;20066;-81
2023/03/05 05:50:19;;;;;;;14.35;8.60;;;;;;;2.16;100.00;101735.50;6201259;23;20027;-82
2023/03/05 05:52:45;;;;;;;14.05;8.40;;;;;;;2.13;100.00;101731.16;6201526;23;20008;-81
2023/03/05 05:55:11;;;;;;;16.63;8.57;;;;;;;2.15;100.00;101739.03;6202243;23;20015;-81
2023/03/05 05:57:37;;;;;;;12.95;8.50;;;;;;;2.13;100.00;101733.78;6202444;23;20065;-81
2023/03/05 06:00:06;;;;;;;15.27;8.43;;;;;;;2.12;100.00;101729.38;6203944;23;20004;-82
2023/03/05 06:02:31;;;;;;;16.73;8.65;;;;;;;2.11;100.00;101724.13;6205801;23;20035;-81
2023/03/05 06:04:56;;;;;;;18.30;10.25;;;;;;;2.08;100.00;101729.38;6204827;23;20027;-81
2023/03/05 06:07:22;;;;;;;17.00;9.38;;;;;;;2.06;100.00;101721.53;6206282;23;20001;-81
2023/03/05 06:09:47;;;;;;;14.32;9.40;;;;;;;2.03;100.00;101720.66;6204536;23;20167;-81
2023/03/05 06:12:13;;;;;;;15.10;10.35;;;;;;;1.98;100.00;101708.41;6207209;23;20032;-82
2023/03/05 06:14:38;;;;;;;15.98;9.77;;;;;;;1.97;100.00;101717.16;6205727;23;20055;-81
2023/03/05 06:17:03;;;;;;;16.08;10.65;;;;;;;1.98;100.00;101721.53;6208064;23;20013;-81
2023/03/05 06:19:28;;;;;;;16.00;9.80;;;;;;;1.97;100.00;101719.78;6207028;23;20011;-81
2023/03/05 06:21:54;;;;;;;12.45;9.65;;;;;;;1.94;100.00;101717.16;6208261;23;20004;-82
2023/03/05 06:24:19;;;;;;;18.77;10.10;;;;;;;1.89;100.00;101711.06;6206614;23;20040;-82
2023/03/05 06:26:45;;;;;;;17.15;10.48;;;;;;;1.90;100.00;101714.53;6206932;23;20312;-82
2023/03/05 06:29:11;;;;;;;16.63;10.63;;;;;;;1.85;100.00;101701.44;6208245;23;20012;-81
2023/03/05 06:31:37;;;;;;;16.77;10.48;;;;;;;1.87;100.00;101711.91;6207535;23;20318;-80
2023/03/05 06:34:03;;;;;;;17.35;10.48;;;;;;;1.87;100.00;101707.53;6206075;23;20017;-81
2023/03/05 06:36:29;;;;;;;16.75;10.38;;;;;;;1.90;100.00;101704.03;6206079;23;20011;-80
2023/03/05 06:38:55;;;;;;;17.42;10.25;;;;;;;1.90;100.00;101702.28;6206226;23;20005;-80
2023/03/05 06:41:24;;;;;;;16.48;10.15;;;;;;;1.91;100.00;101700.53;6207228;23;20403;-82
2023/03/05 06:43:50;;;;;;;16.20;9.18;;;;;;;1.95;100.00;101702.28;6205317;23;20008;-82
2023/03/05 06:46:20;;;;;;;16.33;9.18;;;;;;;1.95;100.00;101697.91;6207925;23;20004;-82
2023/03/05 06:48:46;;;;;;;14.32;9.23;;;;;;;1.98;100.00;101702.28;6207550;23;20012;-81
2023/03/05 06:51:19;;;;;;;13.48;9.73;;;;;;;2.03;100.00;101702.28;6208666;23;20012;-82
2023/03/05 06:53:46;;;;;;;15.60;9.80;;;;;;;2.08;100.00;101708.38;6205509;23;20004;-81
2023/03/05 06:56:12;;;;;;;14.95;9.82;;;;;;;2.09;100.00;101704.88;6207092;23;20080;-82
2023/03/05 06:58:39;;;;;;;11.90;9.30;;;;;;;2.10;100.00;101707.50;6206577;23;20428;-82
2023/03/05 07:01:06;;;;;;;17.33;9.38;;;;;;;2.11;100.00;101706.63;6206996;23;20390;-81
2023/03/05 07:03:32;;;;;;;15.20;9.45;;;;;;;2.10;100.00;101709.28;6206265;23;20078;-82
2023/03/05 07:05:57;;;;;;;16.27;9.40;;;;;;;2.13;100.00;101702.25;6207661;23;20192;-82
2023/03/05 07:08:22;;;;;;;17.13;10.60;;;;;;;2.18;100.00;101699.63;6207322;23;20046;-82
2023/03/05 07:10:47;;;;;;;15.73;9.30;;;;;;;2.23;100.00;101705.72;6206202;23;20001;-82
2023/03/05 07:13:13;;;;;;;14.50;9.70;;;;;;;2.25;100.00;101707.44;6208056;23;20043;-82
2023/03/05 07:15:40;;;;;;;13.00;8.50;;;;;;;2.31;100.00;101705.72;6207800;23;20690;-82
2023/03/05 07:18:06;;;;;;;12.32;8.57;;;;;;;2.33;100.00;101704.81;6207833;23;20012;-82
2023/03/05 07:20:35;;;;;;;10.75;8.68;;;;;;;2.36;100.00;101702.19;6206820;23;20012;-81
2023/03/05 07:23:01;;;;;;;13.63;8.07;;;;;;;2.40;100.00;101703.91;6206033;23;20339;-81
2023/03/05 07:25:26;;;;;;;8.02;6.70;;;;;;;2.42;100.00;101696.88;6207203;23;20009;-83
2023/03/05 07:27:52;;;;;;;9.15;6.90;;;;;;;2.43;100.00;101690.78;6206959;23;20045;-81
2023/03/05 07:30:17;;;;;;;8.80;7.15;;;;;;;2.47;100.00;101704.78;6214175;23;20080;-81
2023/03/05 07:32:43;;;;;;;10.93;7.45;;;;;;;2.50;100.00;101697.72;6217975;23;20028;-79
2023/03/05 07:35:08;;;;;;;9.57;7.05;;;;;;;2.55;100.00;101681.06;6220206;23;20016;-79
2023/03/05 07:37:34;;;;;;;9.25;7.28;;;;;;;2.73;100.00;101686.25;6208598;23;20082;-82
2023/03/05 07:39:59;;;;;;;11.13;6.85;;;;;;;2.92;100.00;101689.66;6206930;23;20008;-81
2023/03/05 07:42:25;;;;;;;11.25;6.55;;;;;;;2.98;100.00;101690.50;6205597;23;20082;-81
2023/03/05 07:44:50;;;;;;;9.00;6.80;;;;;;;3.04;100.00;101686.09;6204895;23;20016;-82
2023/03/05 07:47:15;;;;;;;8.55;6.32;;;;;;;3.17;100.00;101688.59;6207408;23;20004;-80
2023/03/05 07:49:41;;;;;;;8.93;5.40;;;;;;;3.23;100.00;101692.97;6206239;23;20007;-80
2023/03/05 07:52:07;;;;;;;9.15;5.60;;;;;;;3.21;100.00;101692.97;6208935;23;20391;-80
2023/03/05 07:54:36;;;;;;;8.07;5.63;;;;;;;3.27;100.00;101685.94;6212377;23;20488;-82
2023/03/05 07:57:02;;;;;;;5.97;5.10;;;;;;;3.34;100.00;101688.50;6214095;23;20014;-81
2023/03/05 07:59:28;;;;;;;5.97;4.93;;;;;;;3.40;100.00;101680.56;6212941;23;20336;-81
2023/03/05 08:01:53;;;;;;;7.60;4.95;;;;;;;3.48;100.00;101673.47;6214656;23;20415;-82
2023/03/05 08:04:18;;;;;;;7.03;4.95;;;;;;;3.57;100.00;101671.66;6208827;23;20016;-82
2023/03/05 08:06:45;;;;;;;6.88;5.13;;;;;;;3.71;100.00;101672.38;6205946;23;20035;-81
2023/03/05 08:09:11;;;;;;;5.50;4.30;;;;;;;3.82;100.00;101670.53;6207678;23;20009;-82
2023/03/05 08:11:36;;;;;;;7.65;4.82;;;;;;;3.91;100.00;101675.72;6206466;23;20080;-80
2023/03/05 08:14:03;;;;;;;7.25;4.72;;;;;;;3.88;100.00;101670.47;6207896;23;20008;-82
2023/03/05 08:16:28;;;;;;;6.82;4.47;;;;;;;3.83;100.00;101669.66;6206917;23;20014;-81
2023/03/05 08:18:58;;;;;;;6.95;5.18;;;;;;;4.00;100.00;101672.97;6207639;23;20005;-80
2023/03/05 08:21:32;;;;;;;6.55;4.60;;;;;;;4.09;100.00;101671.13;6204802;23;20032;-80
2023/03/05 08:23:58;;;;;;;7.38;4.82;;;;;;;4.10;100.00;101675.53;6205691;23;20015;-82
2023/03/05 08:26:26;;;;;;;8.25;4.40;;;;;;;4.07;100.00;101676.44;6205162;23;20083;-81
2023/03/05 08:28:52;;;;;;;8.07;4.93;;;;;;;4.03;100.00;101660.69;6206233;23;20498;-80
2023/03/05 08:31:20;;;;;;;6.60;4.60;;;;;;;4.10;100.00;101660.59;6206419;23;20012;-81
2023/03/05 08:33:46;;;;;;;7.80;4.38;;;;;;;4.29;100.00;101661.25;6205300;23;20009;-81
2023/03/05 08:36:12;;;;;;;5.95;4.03;;;;;;;4.39;100.00;101659.34;6204325;23;20004;-81
2023/03/05 08:38:37;;;;;;;7.78;4.18;;;;;;;4.50;99.98;101653.06;6177872;23;20008;-81
2023/03/05 08:41:03;;;;;;;7.45;4.20;;;;;;;4.65;99.03;101654.66;6205368;23;20461;-81
2023/03/05 08:43:30;;;;;;;7.15;3.78;;;;;;;4.79;98.55;101646.53;6177319;23;20082;-82
2023/03/05 08:45:55;;;;;;;5.63;3.50;;;;;;;4.76;96.78;101638.66;6205948;23;20296;-80
2023/03/05 08:48:20;;;;;;;7.25;3.42;;;;;;;4.88;95.14;101646.41;6205571;23;20616;-81
2023/03/05 08:50:46;;;;;;;5.63;3.75;;;;;;;5.01;95.19;101644.44;6203669;23;20331;-81
2023/03/05 08:53:11;;;;;;;4.57;3.35;;;;;;;5.23;95.21;101623.91;6203947;23;20130;-82
2023/03/05 08:55:37;;;;;;;6.90;3.55;;;;;;;5.43;94.01;101634.09;6205625;23;20127;-84
2023/03/05 08:58:02;;;;;;;4.70;3.42;;;;;;;5.44;91.39;101627.94;6178459;23;20008;-83
2023/03/05 09:00:28;;;;;;;6.63;3.95;;;;;;;5.43;92.04;101626.19;6206128;23;20042;-81
2023/03/05 09:02:53;;;;;;;4.45;3.08;;;;;;;5.35;91.18;101612.22;6204815;23;20011;-82
2023/03/05 09:05:18;;;;;;;4.32;3.05;;;;;;;5.22;91.22;101623.03;6204729;23;20016;-82
2023/03/05 09:07:44;;;;;;;6.15;4.90;;;;;;;5.33;92.61;101617.56;6203930;23;20013;-83
2023/03/05 09:10:12;;;;;;;9.27;4.38;;;;;;;5.68;91.08;101629.25;6204999;23;20005;-82
2023/03/05 09:12:37;;;;;;;5.43;2.88;;;;;;;5.99;89.07;101619.91;6203366;23;20123;-82
2023/03/05 09:15:07;;;;;;;6.63;2.70;;;;;;;6.03;88.09;101610.16;6203684;23;20381;-83
2023/03/05 09:17:32;;;;;;;5.47;3.10;;;;;;;6.02;88.31;101613.69;6176304;23;20008;-83
2023/03/05 09:19:57;;;;;;;3.42;2.60;;;;;;;5.82;87.76;101614.03;6201222;23;20096;-82
2023/03/05 09:22:23;;;;;;;4.13;2.20;;;;;;;5.67;87.56;101609.91;6201715;23;20008;-83
2023/03/05 09:24:48;;;;;;;3.72;2.42;;;;;;;5.56;88.26;101603.97;6202137;23;20336;-82
2023/03/05 09:27:13;;;;;;;6.95;2.70;;;;;;;5.47;89.64;101604.09;6204050;23;20005;-82
2023/03/05 09:29:38;;;;;;;5.93;2.60;;;;;;;5.40;88.87;101613.06;6201846;23;20031;-82
2023/03/05 09:32:04;;;;;;;4.22;2.28;;;;;;;5.23;88.63;101606.28;6201071;23;20047;-83
2023/03/05 09:34:29;;;;;;;4.43;2.47;;;;;;;5.28;89.14;101600.06;6201393;23;20075;-81
2023/03/05 09:36:55;;;;;;;2.40;2.17;;;;;;;5.37;88.72;101603.41;6202522;23;20054;-81
2023/03/05 09:39:20;;;;;;;2.78;2.05;;;;;;;5.63;87.42;101589.72;6202403;23;20094;-82
2023/03/05 09:41:48;;;;;;;3.55;2.22;;;;;;;5.86;85.17;101594.59;6202558;23;20538;-82
2023/03/05 09:44:40;;;;;;;5.65;2.10;;;;;;;6.31;85.91;101594.59;6205748;23;20043;-81
2023/03/05 09:47:23;;;;;;;3.85;2.13;;;;;;;6.65;83.49;101589.44;6214348;23;20047;-80
2023/03/05 09:50:13;;;;;;;2.55;1.88;;;;;;;6.70;83.08;101587.56;6219211;23;20256;-81
2023/03/05 09:52:45;;;;;;;3.17;1.90;;;;;;;6.55;81.40;101593.19;6212720;23;20274;-82
2023/03/05 09:55:23;;;;;;;2.72;1.80;;;;;;;6.65;82.21;101584.16;6204807;23;20027;-84
2023/03/05 09:57:54;;;;;;;3.53;1.73;;;;;;;6.92;81.27;101579.09;6206748;23;20004;-81
2023/03/05 10:00:32;;;;;;;2.22;1.83;;;;;;;7.17;79.13;101587.31;6206029;23;20009;-81
2023/03/05 10:03:03;;;;;;;2.55;1.67;;;;;;;7.73;77.99;101577.00;6203446;23;20067;-81
2023/03/05 10:05:31;;;;;;;2.25;1.60;;;;;;;9.07;72.95;101573.91;6163268;23;1055393;-81
2023/03/05 10:08:02;;;;;;;4.00;2.58;;;;;;;9.91;66.59;101574.53;6208921;23;20012;-82
2023/03/05 10:10:52;;;;;;;3.05;1.67;;;;;;;9.80;68.71;101570.50;6207887;23;20059;-81
2023/03/05 10:13:28;;;;;;;1.88;1.60;;;;;;;9.20;66.88;101575.25;6203905;23;20076;-81
2023/03/05 10:16:22;;;;;;;2.60;1.77;;;;;;;8.89;69.68;101562.97;6207613;23;20007;-81
2023/03/05 10:19:01;;;;;;;3.03;1.55;;;;;;;8.60;69.74;101565.66;6205822;23;20070;-82
2023/03/05 10:21:31;;;;;;;4.68;2.22;;;;;;;8.26;69.07;101569.31;6205885;23;20437;-81
2023/03/05 10:24:06;;;;;;;2.63;2.10;;;;;;;7.97;67.97;101565.72;6208113;23;20001;-81
2023/03/05 10:26:38;;;;;;;1.95;1.67;;;;;;;7.59;69.51;101558.84;6204391;23;20144;-83
2023/03/05 10:29:13;;;;;;;2.13;1.80;;;;;;;7.30;71.32;101561.41;6204846;23;20011;-83
2023/03/05 10:31:47;;;;;;;2.13;1.77;;;;;;;6.99;71.68;101557.75;6204192;23;20000;-81
2023/03/05 10:34:33;;;;;;;3.55;2.00;;;;;;;6.92;73.99;101553.50;6207076;23;20031;-82
2023/03/05 10:37:04;;;;;;;3.75;1.95;;;;;;;6.76;73.30;101546.84;6205896;23;20005;-83
2023/03/05 10:39:47;;;;;;;3.17;2.20;;;;;;;6.68;74.65;101539.06;6208298;23;20000;-83
2023/03/05 10:42:41;;;;;;;4.82;2.20;;;;;;;6.80;75.42;101539.69;6204479;23;20031;-82
2023/03/05 10:45:29;;;;;;;3.88;2.10;;;;;;;6.81;75.34;101536.16;6204514;23;20008;-83
2023/03/05 10:48:11;;;;;;;4.00;2.40;;;;;;;6.76;76.33;101538.91;6178196;23;20040;-83
2023/03/05 10:50:43;;;;;;;3.45;2.00;;;;;;;6.70;75.01;101539.94;6177087;23;20083;-82
2023/03/05 10:53:08;;;;;;;3.50;2.20;;;;;;;6.43;74.94;101525.56;6205482;23;20005;-81
2023/03/05 10:55:34;;;;;;;4.18;2.58;;;;;;;6.35;75.98;101527.50;6204542;23;20011;-82
2023/03/05 10:58:01;;;;;;;3.83;3.05;;;;;;;6.27;75.29;101532.13;6205489;23;20084;-80
2023/03/05 11:00:27;;;;;;;4.05;3.20;;;;;;;6.22;76.50;101528.69;6204284;23;20004;-81
2023/03/05 11:02:54;;;;;;;4.35;2.95;;;;;;;6.14;77.67;101525.34;6203893;23;20439;-82
2023/03/05 11:05:40;;;;;;;5.40;3.00;;;;;;;6.06;77.92;101525.53;6207997;23;20097;-82
2023/03/05 11:08:26;;;;;;;4.65;2.80;;;;;;;5.89;80.21;101538.16;6207829;23;20007;-83
2023/03/05 11:11:04;;;;;;;6.60;3.22;;;;;;;5.22;85.35;101535.03;6204170;23;20500;-82
2023/03/05 11:13:30;;;;;;;3.80;3.25;;;;;;;4.56;91.84;101533.50;6205040;23;20568;-81
2023/03/05 11:16:00;;;;;;;3.85;3.42;;;;;;;3.95;96.96;101524.66;6205762;23;20058;-81
2023/03/05 11:18:25;;;;;;;6.72;5.55;;;;;;;3.77;100.00;101538.06;6206823;23;20004;-81
2023/03/05 11:20:51;;;;;;;4.45;4.05;;;;;;;3.67;100.00;101532.00;6203930;23;20009;-81
2023/03/05 11:23:24;;;;;;;4.40;4.00;;;;;;;3.78;100.00;101526.63;6205288;23;20004;-81
2023/03/05 11:25:56;;;;;;;5.78;4.22;;;;;;;4.14;100.00;101519.13;6205726;23;20358;-80